<?xml version='1.0' encoding='UTF-8'?><gpx version="1.1" creator="JPX - https://github.com/jenetics/jpx" xmlns="http://www.topografix.com/GPX/1/1"><trk><trkseg><trkpt lat="46.6029241" lon="12.4792415"><ele>1199.0</ele><time>2026-04-17T15:11:30.374Z</time></trkpt><trkpt lat="46.6029981" lon="12.4792476"><ele>1199.0</ele><time>2026-04-17T15:11:33.374Z</time></trkpt><trkpt lat="46.6030731" lon="12.4792645"><ele>1199.0</ele><time>2026-04-17T15:11:36.373Z</time></trkpt><trkpt lat="46.6031494" lon="12.4792728"><ele>1199.0</ele><time>2026-04-17T15:11:39.374Z</time></trkpt><trkpt lat="46.6032223" lon="12.4792385"><ele>1199.0</ele><time>2026-04-17T15:11:41.373Z</time></trkpt><trkpt lat="46.6033015" lon="12.479211"><ele>1199.0</ele><time>2026-04-17T15:11:44.373Z</time></trkpt><trkpt lat="46.6033755" lon="12.4791645"><ele>1199.0</ele><time>2026-04-17T15:11:47.327Z</time></trkpt><trkpt lat="46.6034253" lon="12.4790695"><ele>1199.0</ele><time>2026-04-17T15:11:50.352Z</time></trkpt><trkpt lat="46.6034672" lon="12.4789681"><ele>1199.0</ele><time>2026-04-17T15:11:53.347Z</time></trkpt><trkpt lat="46.6035213" lon="12.4788599"><ele>1199.0</ele><time>2026-04-17T15:11:56.374Z</time></trkpt><trkpt lat="46.6035624" lon="12.4787514"><ele>1199.0</ele><time>2026-04-17T15:11:59.374Z</time></trkpt><trkpt lat="46.6036044" lon="12.4786335"><ele>1199.0</ele><time>2026-04-17T15:12:02.374Z</time></trkpt><trkpt lat="46.6036606" lon="12.478522"><ele>1199.8333333333335</ele><time>2026-04-17T15:12:05.373Z</time></trkpt><trkpt lat="46.603711" lon="12.4784099"><ele>1200.6666666666667</ele><time>2026-04-17T15:12:08.29Z</time></trkpt><trkpt lat="46.6037471" lon="12.4783305"><ele>1201.5</ele><time>2026-04-17T15:12:10.374Z</time></trkpt><trkpt lat="46.6037982" lon="12.4782319"><ele>1202.3333333333333</ele><time>2026-04-17T15:12:13.374Z</time></trkpt><trkpt lat="46.6038451" lon="12.4781405"><ele>1203.1666666666665</ele><time>2026-04-17T15:12:16.374Z</time></trkpt><trkpt lat="46.6038918" lon="12.4780569"><ele>1204.0</ele><time>2026-04-17T15:12:19.29Z</time></trkpt><trkpt lat="46.6039295" lon="12.4779833"><ele>1204.5</ele><time>2026-04-17T15:12:21.372Z</time></trkpt><trkpt lat="46.6039601" lon="12.4778937"><ele>1205.0</ele><time>2026-04-17T15:12:24.374Z</time></trkpt><trkpt lat="46.6040205" lon="12.4778212"><ele>1205.5</ele><time>2026-04-17T15:12:27.373Z</time></trkpt><trkpt lat="46.6040801" lon="12.4777897"><ele>1206.0</ele><time>2026-04-17T15:12:29.373Z</time></trkpt><trkpt lat="46.6041619" lon="12.477752"><ele>1206.5</ele><time>2026-04-17T15:12:32.372Z</time></trkpt><trkpt lat="46.604236" lon="12.4777183"><ele>1207.0</ele><time>2026-04-17T15:12:35.373Z</time></trkpt><trkpt lat="46.604315" lon="12.477696"><ele>1207.0</ele><time>2026-04-17T15:12:38.373Z</time></trkpt><trkpt lat="46.60439" lon="12.4776654"><ele>1207.0</ele><time>2026-04-17T15:12:41.405Z</time></trkpt><trkpt lat="46.6044626" lon="12.477622"><ele>1207.0</ele><time>2026-04-17T15:12:44.404Z</time></trkpt><trkpt lat="46.6045325" lon="12.4775692"><ele>1207.0</ele><time>2026-04-17T15:12:47.375Z</time></trkpt><trkpt lat="46.6046049" lon="12.4775234"><ele>1207.0</ele><time>2026-04-17T15:12:50.387Z</time></trkpt><trkpt lat="46.604674" lon="12.4774816"><ele>1207.0</ele><time>2026-04-17T15:12:53.379Z</time></trkpt><trkpt lat="46.6047461" lon="12.4774472"><ele>1206.3333333333333</ele><time>2026-04-17T15:12:56.382Z</time></trkpt><trkpt lat="46.6048136" lon="12.4773974"><ele>1205.6666666666665</ele><time>2026-04-17T15:12:59.39Z</time></trkpt><trkpt lat="46.6048841" lon="12.4773634"><ele>1205.0</ele><time>2026-04-17T15:13:02.377Z</time></trkpt><trkpt lat="46.6049561" lon="12.4773188"><ele>1204.3333333333333</ele><time>2026-04-17T15:13:05.382Z</time></trkpt><trkpt lat="46.6050261" lon="12.4772669"><ele>1203.6666666666667</ele><time>2026-04-17T15:13:08.373Z</time></trkpt><trkpt lat="46.6050931" lon="12.477212"><ele>1203.0</ele><time>2026-04-17T15:13:11.393Z</time></trkpt><trkpt lat="46.6051578" lon="12.4771752"><ele>1203.0</ele><time>2026-04-17T15:13:14.38Z</time></trkpt><trkpt lat="46.6052196" lon="12.4771234"><ele>1203.0</ele><time>2026-04-17T15:13:17.386Z</time></trkpt><trkpt lat="46.6052714" lon="12.4770569"><ele>1203.0</ele><time>2026-04-17T15:13:20.38Z</time></trkpt><trkpt lat="46.6053272" lon="12.4769968"><ele>1203.0</ele><time>2026-04-17T15:13:23.382Z</time></trkpt><trkpt lat="46.6054119" lon="12.4769246"><ele>1203.0</ele><time>2026-04-17T15:13:27.421Z</time></trkpt><trkpt lat="46.6054609" lon="12.476854"><ele>1203.0</ele><time>2026-04-17T15:13:30.386Z</time></trkpt><trkpt lat="46.6055064" lon="12.4767614"><ele>1204.0</ele><time>2026-04-17T15:13:33.386Z</time></trkpt><trkpt lat="46.6055663" lon="12.4766813"><ele>1205.0</ele><time>2026-04-17T15:13:36.387Z</time></trkpt><trkpt lat="46.6056197" lon="12.4766127"><ele>1206.0</ele><time>2026-04-17T15:13:39.377Z</time></trkpt><trkpt lat="46.6056602" lon="12.4765159"><ele>1207.0</ele><time>2026-04-17T15:13:54.399Z</time></trkpt><trkpt lat="46.60572" lon="12.4764261"><ele>1208.0</ele><time>2026-04-17T15:13:57.379Z</time></trkpt><trkpt lat="46.6057615" lon="12.4763222"><ele>1209.0</ele><time>2026-04-17T15:14:00.376Z</time></trkpt><trkpt lat="46.6057663" lon="12.4762084"><ele>1209.5714285714284</ele><time>2026-04-17T15:14:02.385Z</time></trkpt><trkpt lat="46.6057547" lon="12.4760928"><ele>1210.1428571428573</ele><time>2026-04-17T15:14:04.374Z</time></trkpt><trkpt lat="46.6057321" lon="12.4759883"><ele>1210.7142857142858</ele><time>2026-04-17T15:14:07.374Z</time></trkpt><trkpt lat="46.605705" lon="12.4758992"><ele>1211.2857142857142</ele><time>2026-04-17T15:14:10.385Z</time></trkpt><trkpt lat="46.6056786" lon="12.4757968"><ele>1211.8571428571427</ele><time>2026-04-17T15:14:14.373Z</time></trkpt><trkpt lat="46.6056984" lon="12.4757088"><ele>1212.4285714285716</ele><time>2026-04-17T15:14:17.392Z</time></trkpt><trkpt lat="46.6057592" lon="12.4756441"><ele>1213.0</ele><time>2026-04-17T15:14:20.324Z</time></trkpt><trkpt lat="46.6058394" lon="12.4756239"><ele>1213.0</ele><time>2026-04-17T15:14:23.392Z</time></trkpt><trkpt lat="46.6059061" lon="12.4756057"><ele>1213.0</ele><time>2026-04-17T15:14:26.385Z</time></trkpt><trkpt lat="46.6059307" lon="12.4755133"><ele>1213.0</ele><time>2026-04-17T15:14:30.418Z</time></trkpt><trkpt lat="46.6059128" lon="12.4754185"><ele>1213.0</ele><time>2026-04-17T15:14:37.373Z</time></trkpt><trkpt lat="46.6058905" lon="12.4753189"><ele>1213.0</ele><time>2026-04-17T15:14:42.411Z</time></trkpt><trkpt lat="46.6058679" lon="12.4752082"><ele>1213.0</ele><time>2026-04-17T15:14:49.407Z</time></trkpt><trkpt lat="46.6057754" lon="12.4752427"><ele>1214.857142857143</ele><time>2026-04-17T15:14:51.387Z</time></trkpt><trkpt lat="46.6057111" lon="12.4752846"><ele>1216.7142857142856</ele><time>2026-04-17T15:14:53.378Z</time></trkpt><trkpt lat="46.605646" lon="12.4752546"><ele>1218.5714285714284</ele><time>2026-04-17T15:14:57.375Z</time></trkpt><trkpt lat="46.6055763" lon="12.475229"><ele>1220.4285714285716</ele><time>2026-04-17T15:15:02.388Z</time></trkpt><trkpt lat="46.6055073" lon="12.4751982"><ele>1222.2857142857142</ele><time>2026-04-17T15:15:06.469Z</time></trkpt><trkpt lat="46.6054612" lon="12.4751307"><ele>1224.142857142857</ele><time>2026-04-17T15:15:12.373Z</time></trkpt><trkpt lat="46.6054506" lon="12.4750398"><ele>1226.0</ele><time>2026-04-17T15:15:16.368Z</time></trkpt><trkpt lat="46.6054743" lon="12.4749547"><ele>1226.0</ele><time>2026-04-17T15:15:26.382Z</time></trkpt><trkpt lat="46.6055125" lon="12.474859"><ele>1226.0</ele><time>2026-04-17T15:15:31.376Z</time></trkpt><trkpt lat="46.6055502" lon="12.4747735"><ele>1226.0</ele><time>2026-04-17T15:15:34.803Z</time></trkpt><trkpt lat="46.6055785" lon="12.4746681"><ele>1226.0</ele><time>2026-04-17T15:15:40.289Z</time></trkpt><trkpt lat="46.605563" lon="12.4745623"><ele>1226.0</ele><time>2026-04-17T15:15:45.306Z</time></trkpt><trkpt lat="46.6055741" lon="12.4744688"><ele>1226.0</ele><time>2026-04-17T15:15:49.373Z</time></trkpt><trkpt lat="46.6055478" lon="12.4743715"><ele>1226.0</ele><time>2026-04-17T15:15:54.374Z</time></trkpt><trkpt lat="46.6055511" lon="12.4742695"><ele>1228.142857142857</ele><time>2026-04-17T15:15:59.373Z</time></trkpt><trkpt lat="46.6055771" lon="12.474174"><ele>1230.2857142857142</ele><time>2026-04-17T15:16:04.31Z</time></trkpt><trkpt lat="46.6056136" lon="12.4740863"><ele>1232.4285714285716</ele><time>2026-04-17T15:16:12.373Z</time></trkpt><trkpt lat="46.6056567" lon="12.4740122"><ele>1234.5714285714284</ele><time>2026-04-17T15:16:16.38Z</time></trkpt><trkpt lat="46.6056543" lon="12.4739192"><ele>1236.7142857142856</ele><time>2026-04-17T15:16:22.388Z</time></trkpt><trkpt lat="46.605672" lon="12.4738062"><ele>1238.857142857143</ele><time>2026-04-17T15:16:26.372Z</time></trkpt><trkpt lat="46.6056934" lon="12.4737161"><ele>1241.0</ele><time>2026-04-17T15:16:30.378Z</time></trkpt><trkpt lat="46.6057264" lon="12.4736275"><ele>1243.142857142857</ele><time>2026-04-17T15:16:36.373Z</time></trkpt><trkpt lat="46.6057701" lon="12.4735437"><ele>1245.2857142857142</ele><time>2026-04-17T15:16:40.413Z</time></trkpt><trkpt lat="46.6058056" lon="12.4734612"><ele>1247.4285714285713</ele><time>2026-04-17T15:16:44.393Z</time></trkpt><trkpt lat="46.6058356" lon="12.4733679"><ele>1249.5714285714284</ele><time>2026-04-17T15:16:49.387Z</time></trkpt><trkpt lat="46.6058701" lon="12.4732891"><ele>1251.7142857142858</ele><time>2026-04-17T15:16:54.384Z</time></trkpt><trkpt lat="46.605905" lon="12.4731943"><ele>1253.8571428571427</ele><time>2026-04-17T15:17:00.29Z</time></trkpt><trkpt lat="46.6059634" lon="12.4731456"><ele>1256.0</ele><time>2026-04-17T15:17:07.373Z</time></trkpt><trkpt lat="46.6060162" lon="12.4730951"><ele>1255.9999999999998</ele><time>2026-04-17T15:17:12.373Z</time></trkpt><trkpt lat="46.6060731" lon="12.4730415"><ele>1256.0</ele><time>2026-04-17T15:17:16.371Z</time></trkpt><trkpt lat="46.6061357" lon="12.4729969"><ele>1256.0</ele><time>2026-04-17T15:17:23.373Z</time></trkpt><trkpt lat="46.6061975" lon="12.4729653"><ele>1256.0</ele><time>2026-04-17T15:17:28.373Z</time></trkpt><trkpt lat="46.6061406" lon="12.472907"><ele>1256.0</ele><time>2026-04-17T15:17:33.409Z</time></trkpt><trkpt lat="46.6060905" lon="12.4729712"><ele>1255.9999999999998</ele><time>2026-04-17T15:17:35.288Z</time></trkpt><trkpt lat="46.6060419" lon="12.4730338"><ele>1256.0</ele><time>2026-04-17T15:17:37.374Z</time></trkpt><trkpt lat="46.6059737" lon="12.4731012"><ele>1255.9999999999998</ele><time>2026-04-17T15:17:40.367Z</time></trkpt><trkpt lat="46.6059207" lon="12.4731676"><ele>1256.0</ele><time>2026-04-17T15:17:43.373Z</time></trkpt><trkpt lat="46.6058863" lon="12.473247"><ele>1256.0</ele><time>2026-04-17T15:17:46.373Z</time></trkpt><trkpt lat="46.6058518" lon="12.4733503"><ele>1256.0</ele><time>2026-04-17T15:17:50.373Z</time></trkpt><trkpt lat="46.6058061" lon="12.4734365"><ele>1256.0</ele><time>2026-04-17T15:17:54.325Z</time></trkpt><trkpt lat="46.605773" lon="12.4735296"><ele>1255.9999999999998</ele><time>2026-04-17T15:17:58.309Z</time></trkpt><trkpt lat="46.6057495" lon="12.4736394"><ele>1256.0</ele><time>2026-04-17T15:18:02.316Z</time></trkpt><trkpt lat="46.6057303" lon="12.4737326"><ele>1253.8571428571427</ele><time>2026-04-17T15:18:06.346Z</time></trkpt><trkpt lat="46.6056972" lon="12.4738177"><ele>1251.7142857142858</ele><time>2026-04-17T15:18:10.35Z</time></trkpt><trkpt lat="46.6056762" lon="12.4739088"><ele>1249.5714285714284</ele><time>2026-04-17T15:18:14.377Z</time></trkpt><trkpt lat="46.6056812" lon="12.4740122"><ele>1247.4285714285713</ele><time>2026-04-17T15:18:24.379Z</time></trkpt><trkpt lat="46.6056498" lon="12.4741174"><ele>1245.2857142857142</ele><time>2026-04-17T15:18:30.375Z</time></trkpt><trkpt lat="46.6055972" lon="12.474199"><ele>1243.142857142857</ele><time>2026-04-17T15:18:32.416Z</time></trkpt><trkpt lat="46.6055585" lon="12.4742843"><ele>1241.0</ele><time>2026-04-17T15:18:34.38Z</time></trkpt><trkpt lat="46.6055381" lon="12.4744114"><ele>1241.0</ele><time>2026-04-17T15:18:37.392Z</time></trkpt><trkpt lat="46.60555" lon="12.474505"><ele>1241.0</ele><time>2026-04-17T15:18:40.376Z</time></trkpt><trkpt lat="46.6055809" lon="12.4746047"><ele>1241.0</ele><time>2026-04-17T15:18:44.392Z</time></trkpt><trkpt lat="46.60561" lon="12.4747059"><ele>1241.0</ele><time>2026-04-17T15:18:53.379Z</time></trkpt><trkpt lat="46.6055917" lon="12.4748073"><ele>1241.0</ele><time>2026-04-17T15:18:59.381Z</time></trkpt><trkpt lat="46.605566" lon="12.4749034"><ele>1241.0</ele><time>2026-04-17T15:19:05.379Z</time></trkpt><trkpt lat="46.6055946" lon="12.4751159"><ele>1238.857142857143</ele><time>2026-04-17T15:19:08.374Z</time></trkpt><trkpt lat="46.6056154" lon="12.4752196"><ele>1236.7142857142856</ele><time>2026-04-17T15:19:09.417Z</time></trkpt><trkpt lat="46.6056792" lon="12.4752768"><ele>1234.5714285714284</ele><time>2026-04-17T15:19:12.407Z</time></trkpt><trkpt lat="46.6057445" lon="12.4753169"><ele>1232.4285714285716</ele><time>2026-04-17T15:19:16.395Z</time></trkpt><trkpt lat="46.6058182" lon="12.4753484"><ele>1230.2857142857142</ele><time>2026-04-17T15:19:20.376Z</time></trkpt><trkpt lat="46.605877" lon="12.4753992"><ele>1228.142857142857</ele><time>2026-04-17T15:19:23.388Z</time></trkpt><trkpt lat="46.6059138" lon="12.4754943"><ele>1226.0</ele><time>2026-04-17T15:19:26.377Z</time></trkpt><trkpt lat="46.6059378" lon="12.4756065"><ele>1223.8333333333335</ele><time>2026-04-17T15:19:29.404Z</time></trkpt><trkpt lat="46.6059097" lon="12.4757052"><ele>1221.6666666666667</ele><time>2026-04-17T15:19:32.379Z</time></trkpt><trkpt lat="46.6058667" lon="12.4758066"><ele>1219.5</ele><time>2026-04-17T15:19:35.396Z</time></trkpt><trkpt lat="46.6058344" lon="12.4758949"><ele>1217.3333333333333</ele><time>2026-04-17T15:19:38.376Z</time></trkpt><trkpt lat="46.6057453" lon="12.4759598"><ele>1215.1666666666665</ele><time>2026-04-17T15:19:41.391Z</time></trkpt><trkpt lat="46.605681" lon="12.4760469"><ele>1213.0</ele><time>2026-04-17T15:19:44.377Z</time></trkpt><trkpt lat="46.605668" lon="12.4761422"><ele>1212.3333333333333</ele><time>2026-04-17T15:19:46.372Z</time></trkpt><trkpt lat="46.6056534" lon="12.4762767"><ele>1211.6666666666665</ele><time>2026-04-17T15:19:49.391Z</time></trkpt><trkpt lat="46.6056435" lon="12.4764071"><ele>1211.0</ele><time>2026-04-17T15:19:52.38Z</time></trkpt><trkpt lat="46.605637" lon="12.4765378"><ele>1210.3333333333333</ele><time>2026-04-17T15:19:55.391Z</time></trkpt><trkpt lat="46.6056223" lon="12.4766361"><ele>1209.6666666666667</ele><time>2026-04-17T15:19:58.169Z</time></trkpt><trkpt lat="46.6055735" lon="12.4767013"><ele>1209.0</ele><time>2026-04-17T15:20:01.373Z</time></trkpt><trkpt lat="46.6055307" lon="12.4767735"><ele>1209.0</ele><time>2026-04-17T15:20:04.345Z</time></trkpt><trkpt lat="46.6054846" lon="12.4768575"><ele>1209.0</ele><time>2026-04-17T15:20:07.373Z</time></trkpt><trkpt lat="46.6054181" lon="12.4769081"><ele>1209.0</ele><time>2026-04-17T15:20:10.373Z</time></trkpt><trkpt lat="46.6053597" lon="12.4769711"><ele>1209.0</ele><time>2026-04-17T15:20:13.373Z</time></trkpt><trkpt lat="46.6053025" lon="12.4770335"><ele>1209.0</ele><time>2026-04-17T15:20:16.327Z</time></trkpt><trkpt lat="46.6052444" lon="12.4770887"><ele>1209.0</ele><time>2026-04-17T15:20:19.372Z</time></trkpt><trkpt lat="46.6051809" lon="12.4771363"><ele>1209.0</ele><time>2026-04-17T15:20:22.373Z</time></trkpt><trkpt lat="46.6051151" lon="12.4771835"><ele>1208.142857142857</ele><time>2026-04-17T15:20:25.373Z</time></trkpt><trkpt lat="46.605046" lon="12.477218"><ele>1207.2857142857144</ele><time>2026-04-17T15:20:28.373Z</time></trkpt><trkpt lat="46.6049799" lon="12.4772521"><ele>1206.4285714285716</ele><time>2026-04-17T15:20:31.395Z</time></trkpt><trkpt lat="46.6049181" lon="12.4772977"><ele>1205.5714285714284</ele><time>2026-04-17T15:20:34.368Z</time></trkpt><trkpt lat="46.6048521" lon="12.4773318"><ele>1204.7142857142858</ele><time>2026-04-17T15:20:37.407Z</time></trkpt><trkpt lat="46.6047904" lon="12.4773665"><ele>1203.857142857143</ele><time>2026-04-17T15:20:40.373Z</time></trkpt><trkpt lat="46.6047427" lon="12.4774371"><ele>1203.0</ele><time>2026-04-17T15:20:43.388Z</time></trkpt><trkpt lat="46.6046821" lon="12.4775033"><ele>1203.0</ele><time>2026-04-17T15:20:46.407Z</time></trkpt><trkpt lat="46.6046219" lon="12.4775425"><ele>1203.0</ele><time>2026-04-17T15:20:49.379Z</time></trkpt><trkpt lat="46.6045803" lon="12.4776177"><ele>1203.0</ele><time>2026-04-17T15:20:52.391Z</time></trkpt><trkpt lat="46.604513" lon="12.4776633"><ele>1203.0</ele><time>2026-04-17T15:20:55.403Z</time></trkpt><trkpt lat="46.6044334" lon="12.4776849"><ele>1207.0</ele><time>2026-04-17T15:20:58.413Z</time></trkpt><trkpt lat="46.604355" lon="12.4776897"><ele>1207.0</ele><time>2026-04-17T15:21:01.387Z</time></trkpt></trkseg></trk></gpx>